Time;durP1;ratioP1;P1;durP2;ratioP2;P2;SDS_P1;SDS_P2;PMS_P1;PMS_P2;Temp;Humidity;BMP_temperature;BMP_pressure;BME280_temperature;BME280_humidity;BME280_pressure;Samples;Min_cycle;Max_cycle;Signal;HPM_P1;HPM_P2
2021/08/12 00:02:03;;;;;;;0.40;0.30;;;18.70;99.90;;;;;;5090607;28;20390;-82
2021/08/12 00:04:29;;;;;;;0.40;0.20;;;18.60;99.90;;;;;;5091100;28;20401;-82
2021/08/12 00:06:55;;;;;;;0.40;0.30;;;18.50;99.90;;;;;;5091195;28;20781;-82
2021/08/12 00:09:21;;;;;;;0.40;0.20;;;18.50;99.90;;;;;;5090552;28;20382;-83
2021/08/12 00:11:47;;;;;;;0.40;0.30;;;18.60;99.90;;;;;;5091111;28;20763;-82
2021/08/12 00:14:12;;;;;;;0.40;0.20;;;18.50;99.90;;;;;;5090637;28;20738;-82
2021/08/12 00:16:38;;;;;;;0.40;0.30;;;18.50;99.90;;;;;;5091415;28;20390;-83
2021/08/12 00:19:04;;;;;;;0.40;0.20;;;18.40;99.90;;;;;;5090215;28;20369;-81
2021/08/12 00:21:30;;;;;;;0.40;0.20;;;18.40;99.90;;;;;;5091296;28;20378;-83
2021/08/12 00:23:57;;;;;;;0.40;0.30;;;18.40;99.90;;;;;;5090900;28;20401;-83
2021/08/12 00:26:23;;;;;;;0.40;0.30;;;18.40;99.90;;;;;;5107567;28;20397;-83
2021/08/12 00:28:54;;;;;;;0.40;0.30;;;18.40;99.90;;;;;;5094593;28;20405;-82
2021/08/12 00:31:20;;;;;;;0.40;0.30;;;18.50;99.90;;;;;;5106525;28;20831;-82
2021/08/12 00:33:45;;;;;;;0.40;0.30;;;18.50;99.90;;;;;;5091126;28;20465;-82
2021/08/12 00:36:11;;;;;;;0.40;0.30;;;18.50;99.90;;;;;;5090104;28;20716;-81
2021/08/12 00:38:37;;;;;;;0.40;0.30;;;18.40;99.90;;;;;;5090854;28;20834;-82
2021/08/12 00:41:02;;;;;;;0.40;0.30;;;18.40;99.90;;;;;;5091947;28;20472;-82
2021/08/12 00:43:28;;;;;;;0.40;0.30;;;18.30;99.90;;;;;;5094510;28;20402;-84
2021/08/12 00:45:53;;;;;;;0.40;0.30;;;18.20;99.90;;;;;;5094592;28;20386;-83
2021/08/12 00:48:19;;;;;;;0.40;0.20;;;18.10;99.90;;;;;;5093802;28;20433;-82
2021/08/12 00:50:46;;;;;;;0.40;0.30;;;18.10;99.90;;;;;;5094178;28;20378;-83
2021/08/12 00:53:12;;;;;;;0.40;0.30;;;18.10;99.90;;;;;;5093662;28;20386;-83
2021/08/12 00:55:42;;;;;;;0.40;0.30;;;18.10;99.90;;;;;;5076316;28;20394;-82
2021/08/12 00:58:08;;;;;;;0.40;0.30;;;18.10;99.90;;;;;;5075463;28;20712;-83
2021/08/12 01:00:35;;;;;;;0.40;0.30;;;18.10;99.90;;;;;;5094003;28;20469;-82
2021/08/12 01:03:04;;;;;;;0.40;0.30;;;18.00;99.90;;;;;;5094171;28;20489;-84
2021/08/12 01:05:31;;;;;;;0.40;0.20;;;17.90;99.90;;;;;;5093954;28;20926;-83
2021/08/12 01:08:08;;;;;;;0.40;0.30;;;18.00;99.90;;;;;;5094080;28;20374;-83
2021/08/12 01:10:54;;;;;;;0.40;0.30;;;17.80;99.90;;;;;;5094375;28;20386;-83
2021/08/12 01:13:42;;;;;;;0.40;0.20;;;17.70;99.90;;;;;;5109091;28;20401;-83
2021/08/12 01:16:10;;;;;;;0.40;0.30;;;17.70;99.90;;;;;;5093011;28;20382;-82
2021/08/12 01:18:41;;;;;;;0.40;0.20;;;17.60;99.90;;;;;;5093945;28;20370;-82
2021/08/12 01:21:25;;;;;;;0.40;0.30;;;17.60;99.90;;;;;;5093496;28;20382;-81
2021/08/12 01:23:52;;;;;;;0.40;0.30;;;17.60;99.90;;;;;;5093756;28;20406;-82
2021/08/12 01:26:20;;;;;;;0.40;0.30;;;17.60;99.90;;;;;;5093268;28;20386;-83
2021/08/12 01:28:48;;;;;;;0.40;0.20;;;17.50;99.90;;;;;;5093667;28;20488;-82
2021/08/12 01:31:33;;;;;;;0.40;0.30;;;17.50;99.90;;;;;;5093168;28;20419;-82
2021/08/12 01:34:15;;;;;;;0.40;0.30;;;17.60;99.90;;;;;;5093465;28;20389;-83
2021/08/12 01:36:43;;;;;;;0.40;0.30;;;17.60;99.90;;;;;;5093661;28;20730;-82
2021/08/12 01:39:13;;;;;;;0.40;0.22;;;17.50;99.90;;;;;;5092842;28;20477;-83
2021/08/12 01:41:40;;;;;;;0.40;0.20;;;17.50;99.90;;;;;;5093508;28;20441;-83
2021/08/12 01:44:06;;;;;;;0.40;0.20;;;17.50;99.90;;;;;;5092340;28;20409;-82
2021/08/12 01:46:34;;;;;;;0.40;0.20;;;17.50;99.90;;;;;;5093567;28;20413;-82
2021/08/12 01:49:03;;;;;;;0.40;0.20;;;17.50;99.90;;;;;;5075139;28;20382;-81
2021/08/12 01:51:31;;;;;;;0.40;0.30;;;17.50;99.90;;;;;;5074354;28;20402;-83
2021/08/12 01:53:58;;;;;;;0.40;0.30;;;17.40;99.90;;;;;;5093203;28;20378;-82
2021/08/12 01:56:25;;;;;;;0.40;0.30;;;17.50;99.90;;;;;;5092427;28;20415;-82
2021/08/12 01:58:53;;;;;;;0.40;0.30;;;17.50;99.90;;;;;;5093025;28;20370;-81
2021/08/12 02:01:19;;;;;;;0.40;0.30;;;17.40;99.90;;;;;;5092479;28;20739;-83
2021/08/12 02:03:46;;;;;;;0.40;0.20;;;17.40;99.90;;;;;;5092987;28;20405;-82
2021/08/12 02:06:13;;;;;;;3.60;0.80;;;17.40;99.90;;;;;;5092295;28;20388;-81
2021/08/12 02:08:38;;;;;;;0.40;0.30;;;17.40;99.90;;;;;;5092633;28;20377;-83
2021/08/12 02:11:04;;;;;;;0.40;0.20;;;17.40;99.90;;;;;;5093052;28;20401;-83
2021/08/12 02:13:30;;;;;;;0.40;0.20;;;17.20;99.90;;;;;;5092234;28;20850;-82
2021/08/12 02:15:56;;;;;;;0.40;0.20;;;17.10;99.90;;;;;;5092804;28;20424;-82
2021/08/12 02:18:21;;;;;;;0.40;0.30;;;17.20;99.90;;;;;;5092274;28;20380;-82
2021/08/12 02:20:52;;;;;;;0.40;0.20;;;17.20;99.90;;;;;;5092783;28;20370;-82
2021/08/12 02:23:32;;;;;;;0.40;0.20;;;17.20;99.90;;;;;;5107875;28;20827;-83
2021/08/12 02:26:19;;;;;;;0.40;0.30;;;17.20;99.90;;;;;;5092622;28;20417;-83
2021/08/12 02:28:48;;;;;;;0.40;0.30;;;17.10;99.90;;;;;;5092057;28;20744;-83
2021/08/12 02:31:20;;;;;;;0.40;0.40;;;17.10;99.90;;;;;;5091793;28;20745;-83
2021/08/12 02:33:47;;;;;;;0.40;0.30;;;17.10;99.90;;;;;;5092421;28;20738;-83
2021/08/12 02:36:14;;;;;;;0.40;0.20;;;17.00;99.90;;;;;;5091709;28;20485;-83
2021/08/12 02:38:43;;;;;;;0.40;0.20;;;17.00;99.90;;;;;;5092347;28;20824;-82
2021/08/12 02:41:13;;;;;;;0.40;0.30;;;17.00;99.90;;;;;;5091887;28;20390;-83
2021/08/12 02:43:41;;;;;;;0.40;0.30;;;17.10;99.90;;;;;;5092580;28;20409;-83
2021/08/12 02:46:07;;;;;;;0.40;0.30;;;17.00;99.90;;;;;;5092224;28;20851;-83
2021/08/12 02:48:34;;;;;;;0.40;0.30;;;17.00;99.90;;;;;;5091697;28;20378;-83
2021/08/12 02:51:01;;;;;;;0.40;0.30;;;17.00;99.90;;;;;;5092178;28;20385;-83
2021/08/12 02:53:31;;;;;;;0.40;0.30;;;17.00;99.90;;;;;;5091298;28;20882;-83
2021/08/12 02:55:58;;;;;;;0.40;0.20;;;17.00;99.90;;;;;;5092043;28;20366;-82
2021/08/12 02:58:31;;;;;;;0.40;0.30;;;17.10;99.90;;;;;;5091452;28;20382;-83
2021/08/12 03:00:57;;;;;;;0.40;0.20;;;17.00;99.90;;;;;;5092007;28;20724;-83
2021/08/12 03:03:24;;;;;;;0.40;0.30;;;16.90;99.90;;;;;;5090508;28;20933;-82
2021/08/12 03:05:50;;;;;;;0.40;0.30;;;17.00;99.90;;;;;;5091594;28;20382;-82
2021/08/12 03:08:18;;;;;;;0.40;0.30;;;17.10;99.90;;;;;;5091334;28;20380;-83
2021/08/12 03:10:44;;;;;;;0.40;0.30;;;17.10;99.90;;;;;;5091423;28;20512;-84
2021/08/12 03:13:11;;;;;;;0.40;0.30;;;17.00;99.90;;;;;;5091440;28;20390;-77
2021/08/12 03:15:38;;;;;;;0.40;0.20;;;17.00;99.90;;;;;;5091394;28;20866;-84
2021/08/12 03:18:05;;;;;;;0.40;0.30;;;16.90;99.90;;;;;;5091866;28;20881;-83
2021/08/12 03:20:31;;;;;;;0.40;0.30;;;16.90;99.90;;;;;;5090792;28;20378;-83
2021/08/12 03:22:57;;;;;;;0.40;0.30;;;16.90;99.90;;;;;;5091669;28;20398;-83
2021/08/12 03:25:24;;;;;;;0.40;0.20;;;16.90;99.90;;;;;;5090747;28;20414;-84
2021/08/12 03:27:50;;;;;;;0.40;0.30;;;16.80;99.90;;;;;;5091076;28;20394;-84
2021/08/12 03:30:16;;;;;;;0.40;0.20;;;16.90;99.90;;;;;;5090667;28;20374;-83
2021/08/12 03:32:42;;;;;;;0.40;0.20;;;17.00;99.90;;;;;;5091861;28;20374;-84
2021/08/12 03:35:08;;;;;;;0.40;0.30;;;16.90;99.90;;;;;;5091354;28;20888;-83
2021/08/12 03:37:34;;;;;;;0.40;0.20;;;16.80;99.90;;;;;;5090937;28;20391;-82
2021/08/12 03:39:59;;;;;;;0.40;0.30;;;16.70;99.90;;;;;;5091493;28;20382;-82
2021/08/12 03:42:25;;;;;;;0.40;0.30;;;16.70;99.90;;;;;;5090572;28;20797;-84
2021/08/12 03:44:51;;;;;;;0.40;0.30;;;16.80;99.90;;;;;;5091270;28;20397;-83
2021/08/12 03:47:19;;;;;;;0.40;0.30;;;16.70;99.90;;;;;;5090875;28;20382;-82
2021/08/12 03:49:44;;;;;;;0.40;0.30;;;16.70;99.90;;;;;;5091320;28;20385;-82
2021/08/12 03:52:10;;;;;;;0.40;0.30;;;16.70;99.90;;;;;;5091054;28;20479;-83
2021/08/12 03:54:36;;;;;;;0.40;0.20;;;16.70;99.90;;;;;;5072533;28;20397;-83
2021/08/12 03:57:03;;;;;;;0.40;0.30;;;16.80;99.90;;;;;;5072876;28;20397;-83
2021/08/12 03:59:29;;;;;;;0.40;0.20;;;16.70;99.90;;;;;;5090653;28;20468;-82
2021/08/12 04:01:55;;;;;;;0.40;0.30;;;16.80;99.90;;;;;;5090942;28;20453;-83
2021/08/12 04:04:20;;;;;;;0.40;0.20;;;16.80;99.90;;;;;;5090620;28;20406;-82
2021/08/12 04:06:46;;;;;;;0.40;0.30;;;16.80;99.90;;;;;;5091478;28;20802;-82
2021/08/12 04:09:12;;;;;;;0.40;0.30;;;16.80;99.90;;;;;;5091194;28;20386;-82
2021/08/12 04:11:38;;;;;;;0.40;0.20;;;16.90;99.90;;;;;;5090501;28;20378;-82
2021/08/12 04:14:04;;;;;;;0.40;0.20;;;16.90;99.90;;;;;;5091093;28;20381;-83
2021/08/12 04:16:30;;;;;;;0.40;0.30;;;16.80;99.90;;;;;;5094765;28;20374;-84
2021/08/12 04:18:55;;;;;;;0.40;0.30;;;16.80;99.90;;;;;;5095492;28;20385;-84
2021/08/12 04:21:21;;;;;;;0.40;0.28;;;16.70;99.90;;;;;;5076383;28;20393;-82
2021/08/12 04:23:47;;;;;;;0.40;0.20;;;16.70;99.90;;;;;;5094705;28;20404;-82
2021/08/12 04:26:12;;;;;;;0.40;0.30;;;16.70;99.90;;;;;;5094897;28;20379;-82
2021/08/12 04:28:38;;;;;;;0.40;0.20;;;16.80;99.90;;;;;;5094331;28;20488;-83
2021/08/12 04:31:04;;;;;;;0.40;0.30;;;16.70;99.90;;;;;;5094619;28;20474;-82
2021/08/12 04:33:31;;;;;;;0.40;0.30;;;16.80;99.90;;;;;;5094285;28;20431;-83
2021/08/12 04:35:57;;;;;;;0.40;0.20;;;16.70;99.90;;;;;;5094842;28;20753;-83
2021/08/12 04:38:25;;;;;;;0.40;0.20;;;16.70;99.90;;;;;;5093995;28;20382;-82
2021/08/12 04:40:51;;;;;;;0.40;0.30;;;16.80;99.90;;;;;;5094763;28;20904;-82
2021/08/12 04:43:17;;;;;;;0.40;0.20;;;16.80;99.90;;;;;;5094099;28;20493;-83
2021/08/12 04:45:43;;;;;;;0.40;0.20;;;16.70;99.90;;;;;;5094612;28;20390;-83
2021/08/12 04:48:08;;;;;;;0.40;0.30;;;16.80;99.90;;;;;;5076402;28;20382;-83
2021/08/12 04:50:34;;;;;;;0.40;0.20;;;16.80;99.90;;;;;;5093601;28;20885;-83
2021/08/12 04:53:00;;;;;;;0.40;0.20;;;16.90;99.90;;;;;;5094628;28;20851;-84
2021/08/12 04:55:26;;;;;;;0.40;0.20;;;16.90;99.90;;;;;;5093767;28;20404;-83
2021/08/12 04:57:51;;;;;;;0.40;0.30;;;16.90;99.90;;;;;;5094840;28;20905;-83
2021/08/12 05:00:17;;;;;;;0.40;0.27;;;17.00;99.90;;;;;;5093375;28;20378;-81
2021/08/12 05:02:43;;;;;;;0.40;0.20;;;17.10;99.90;;;;;;5094265;28;20382;-83
2021/08/12 05:05:10;;;;;;;0.40;0.20;;;17.10;99.90;;;;;;5094363;28;20865;-83
2021/08/12 05:07:35;;;;;;;0.40;0.20;;;17.10;99.90;;;;;;5075165;28;20378;-85
2021/08/12 05:10:01;;;;;;;0.40;0.30;;;17.10;99.90;;;;;;5094182;28;20489;-84
2021/08/12 05:12:27;;;;;;;0.40;0.20;;;17.10;99.90;;;;;;5074958;28;20817;-82
2021/08/12 05:14:52;;;;;;;0.40;0.30;;;17.10;99.90;;;;;;5094178;28;20378;-83
2021/08/12 05:17:18;;;;;;;0.40;0.20;;;17.20;99.90;;;;;;5093323;28;20835;-83
2021/08/12 05:19:44;;;;;;;0.40;0.30;;;17.20;99.90;;;;;;5094261;28;20384;-84
2021/08/12 05:22:13;;;;;;;0.40;0.20;;;17.20;99.90;;;;;;5093964;28;20382;-84
2021/08/12 05:24:38;;;;;;;0.40;0.20;;;17.30;99.90;;;;;;5093223;28;20409;-84
2021/08/12 05:27:05;;;;;;;0.40;0.40;;;17.40;99.90;;;;;;5108382;28;20402;-84
2021/08/12 05:29:30;;;;;;;0.40;0.20;;;17.50;99.90;;;;;;5092785;28;20405;-84
2021/08/12 05:31:58;;;;;;;0.40;0.20;;;17.50;99.90;;;;;;5093599;28;20374;-83
2021/08/12 05:34:23;;;;;;;0.40;0.20;;;17.60;99.90;;;;;;5108970;28;20398;-83
2021/08/12 05:36:49;;;;;;;0.40;0.20;;;17.60;99.90;;;;;;5093225;28;20499;-83
2021/08/12 05:39:14;;;;;;;0.40;0.20;;;17.60;99.90;;;;;;5093713;28;20463;-83
2021/08/12 05:41:40;;;;;;;0.40;0.20;;;17.70;99.90;;;;;;5092555;28;20469;-83
2021/08/12 05:44:06;;;;;;;0.40;0.20;;;17.60;99.90;;;;;;5093326;28;20407;-83
2021/08/12 05:46:31;;;;;;;0.40;0.30;;;17.60;99.90;;;;;;5108530;28;20424;-83
2021/08/12 05:48:57;;;;;;;0.40;0.20;;;17.60;99.90;;;;;;5075305;28;20382;-83
2021/08/12 05:51:22;;;;;;;0.40;0.30;;;17.70;99.90;;;;;;5092935;28;20389;-83
2021/08/12 05:53:48;;;;;;;0.40;0.20;;;17.70;99.90;;;;;;5093133;28;20473;-83
2021/08/12 05:56:14;;;;;;;0.40;0.30;;;17.70;99.90;;;;;;5093127;28;20955;-83
2021/08/12 05:58:39;;;;;;;0.40;0.30;;;17.70;99.90;;;;;;5092535;28;20844;-83
2021/08/12 06:01:07;;;;;;;0.40;0.30;;;17.70;99.90;;;;;;5077956;28;20395;-83
2021/08/12 06:03:34;;;;;;;0.40;0.30;;;17.80;99.90;;;;;;5106395;28;20409;-84
2021/08/12 06:06:00;;;;;;;0.40;0.20;;;17.90;99.90;;;;;;5096640;28;20391;-77
2021/08/12 06:08:26;;;;;;;0.40;0.20;;;17.80;99.90;;;;;;5108710;28;20392;-81
2021/08/12 06:10:52;;;;;;;0.40;0.30;;;18.00;99.90;;;;;;5101988;28;20418;-82
2021/08/12 06:13:17;;;;;;;0.40;0.30;;;18.10;99.90;;;;;;5100020;28;20386;-81
2021/08/12 06:15:43;;;;;;;0.40;0.30;;;18.20;99.90;;;;;;5091750;28;20378;-81
2021/08/12 06:18:10;;;;;;;0.40;0.20;;;18.20;99.90;;;;;;5098207;28;20380;-81
2021/08/12 06:20:38;;;;;;;0.40;0.20;;;18.30;99.90;;;;;;5105110;28;20378;-82
2021/08/12 06:23:07;;;;;;;0.40;0.30;;;18.50;99.90;;;;;;5102782;28;20400;-81
2021/08/12 06:25:38;;;;;;;0.40;0.30;;;18.50;99.90;;;;;;5097057;28;20382;-81
2021/08/12 06:28:05;;;;;;;0.40;0.20;;;18.60;99.90;;;;;;5108864;28;20450;-82
2021/08/12 06:30:31;;;;;;;0.40;0.30;;;18.70;99.90;;;;;;5096539;28;20386;-80
2021/08/12 06:32:57;;;;;;;0.40;0.20;;;18.80;99.90;;;;;;5109131;28;20384;-81
2021/08/12 06:35:23;;;;;;;0.40;0.20;;;18.90;99.90;;;;;;5095608;28;20502;-81
2021/08/12 06:37:51;;;;;;;0.40;0.30;;;19.10;99.90;;;;;;5086455;28;20949;-82
2021/08/12 06:40:19;;;;;;;0.40;0.20;;;19.20;99.90;;;;;;5099529;28;20479;-82
2021/08/12 06:42:45;;;;;;;0.40;0.20;;;19.30;99.90;;;;;;5095315;28;20735;-80
2021/08/12 06:45:12;;;;;;;0.40;0.20;;;19.40;99.90;;;;;;5094969;28;20453;-82
2021/08/12 06:47:38;;;;;;;0.40;0.20;;;19.40;99.90;;;;;;5107216;28;20461;-80
2021/08/12 06:50:08;;;;;;;0.40;0.30;;;19.40;99.90;;;;;;5100854;28;20514;-83
2021/08/12 06:52:34;;;;;;;0.40;0.30;;;19.50;99.90;;;;;;5104942;28;20417;-82
2021/08/12 06:55:00;;;;;;;0.40;0.30;;;19.70;99.90;;;;;;5095090;28;20866;-82
2021/08/12 06:57:26;;;;;;;0.40;0.20;;;19.70;99.90;;;;;;5090716;28;20386;-82
2021/08/12 06:59:52;;;;;;;0.40;0.20;;;19.80;99.90;;;;;;5093112;28;20398;-83
2021/08/12 07:02:18;;;;;;;0.40;0.30;;;19.80;99.90;;;;;;5091709;28;20382;-83
2021/08/12 07:04:43;;;;;;;0.40;0.20;;;20.00;99.90;;;;;;5095284;28;20816;-83
2021/08/12 07:07:09;;;;;;;0.40;0.20;;;20.10;99.90;;;;;;5103766;28;20438;-82
2021/08/12 07:09:35;;;;;;;0.40;0.30;;;20.20;99.90;;;;;;5079262;28;20402;-78
2021/08/12 07:12:01;;;;;;;0.80;0.80;;;20.20;99.90;;;;;;5092404;28;20412;-84
2021/08/12 07:14:27;;;;;;;0.40;0.30;;;20.40;99.90;;;;;;5095829;28;20389;-83
2021/08/12 07:16:52;;;;;;;0.40;0.20;;;20.50;99.90;;;;;;5102997;28;20499;-84
2021/08/12 07:19:18;;;;;;;0.40;0.20;;;20.90;99.90;;;;;;5104641;28;20388;-82
2021/08/12 07:21:44;;;;;;;0.40;0.30;;;21.10;99.90;;;;;;5094945;28;20386;-84
2021/08/12 07:24:09;;;;;;;0.40;0.20;;;21.20;99.90;;;;;;5078510;28;20448;-83
2021/08/12 07:26:36;;;;;;;0.40;0.30;;;21.10;99.90;;;;;;5090878;28;20382;-83
2021/08/12 07:29:02;;;;;;;0.40;0.20;;;21.20;99.90;;;;;;5090158;28;20401;-83
2021/08/12 07:31:28;;;;;;;0.40;0.30;;;21.20;99.90;;;;;;5090310;28;20390;-80
2021/08/12 07:33:54;;;;;;;0.40;0.20;;;21.20;99.90;;;;;;5091051;28;20377;-83
2021/08/12 07:36:20;;;;;;;0.40;0.30;;;21.40;99.90;;;;;;5091420;28;20498;-81
2021/08/12 07:38:45;;;;;;;0.40;0.20;;;21.50;99.90;;;;;;5090403;28;20893;-84
2021/08/12 07:41:12;;;;;;;0.40;0.30;;;21.60;99.90;;;;;;5091528;28;20382;-81
2021/08/12 07:43:38;;;;;;;0.40;0.30;;;21.70;99.90;;;;;;5072368;28;20892;-82
2021/08/12 07:46:04;;;;;;;0.40;0.20;;;21.60;99.90;;;;;;5091265;28;20448;-82
2021/08/12 07:48:30;;;;;;;0.40;0.20;;;21.60;99.90;;;;;;5090641;28;20374;-83
2021/08/12 07:50:55;;;;;;;0.40;0.20;;;21.60;99.90;;;;;;5097308;28;20389;-81
2021/08/12 07:53:21;;;;;;;0.40;0.30;;;21.60;99.90;;;;;;5098297;28;20389;-81
2021/08/12 07:55:47;;;;;;;0.40;0.28;;;21.60;99.90;;;;;;5097379;28;20439;-82
2021/08/12 07:58:13;;;;;;;0.40;0.20;;;21.60;99.90;;;;;;5097877;28;20742;-81
2021/08/12 08:00:38;;;;;;;0.40;0.30;;;21.70;99.90;;;;;;5097653;28;20910;-82
2021/08/12 08:03:04;;;;;;;0.40;0.20;;;21.70;99.90;;;;;;5097655;28;20413;-82
2021/08/12 08:05:30;;;;;;;0.40;0.30;;;21.70;99.90;;;;;;5097297;28;20861;-81
2021/08/12 08:07:56;;;;;;;0.40;0.20;;;21.90;99.90;;;;;;5098068;28;20726;-81
2021/08/12 08:10:24;;;;;;;0.40;0.20;;;22.00;99.90;;;;;;5097657;28;20386;-81
2021/08/12 08:12:50;;;;;;;0.40;0.20;;;22.00;99.90;;;;;;5097931;28;20378;-82
2021/08/12 08:15:18;;;;;;;0.40;0.20;;;22.10;99.90;;;;;;5097835;28;20423;-80
2021/08/12 08:17:44;;;;;;;0.40;0.20;;;22.00;99.90;;;;;;5096994;28;20373;-81
2021/08/12 08:20:11;;;;;;;0.40;0.20;;;22.20;99.90;;;;;;5113583;28;20401;-80
2021/08/12 08:22:38;;;;;;;0.40;0.20;;;22.20;99.90;;;;;;5096829;28;20461;-80
2021/08/12 08:25:06;;;;;;;0.40;0.20;;;22.20;99.90;;;;;;5097809;28;20401;-84
2021/08/12 08:27:32;;;;;;;0.40;0.20;;;22.30;99.90;;;;;;5096782;28;20390;-82
2021/08/12 08:29:58;;;;;;;0.40;0.30;;;22.70;99.90;;;;;;5097891;28;20469;-80
2021/08/12 08:32:25;;;;;;;0.40;0.30;;;22.70;99.90;;;;;;5097475;28;20477;-82
2021/08/12 08:34:51;;;;;;;0.40;0.20;;;22.60;99.90;;;;;;5096710;28;20421;-80
2021/08/12 08:37:18;;;;;;;0.40;0.20;;;22.70;99.90;;;;;;5097543;28;20369;-80
2021/08/12 08:39:46;;;;;;;0.40;0.40;;;22.80;99.90;;;;;;5096043;28;20401;-81
2021/08/12 08:42:12;;;;;;;0.40;0.20;;;22.80;99.90;;;;;;5097652;28;20887;-80
2021/08/12 08:44:40;;;;;;;0.40;0.20;;;22.80;99.90;;;;;;5096841;28;20402;-83
2021/08/12 08:47:08;;;;;;;0.40;0.20;;;23.10;99.90;;;;;;5100071;28;20440;-81
2021/08/12 08:49:37;;;;;;;0.40;0.20;;;23.20;99.90;;;;;;5104235;28;20414;-80
2021/08/12 08:52:03;;;;;;;0.90;0.40;;;23.30;99.90;;;;;;5100728;28;20381;-82
2021/08/12 08:54:31;;;;;;;0.40;0.20;;;23.20;99.90;;;;;;5097927;28;20374;-80
2021/08/12 08:56:59;;;;;;;0.40;0.20;;;23.20;99.90;;;;;;5099082;28;20386;-80
2021/08/12 08:59:26;;;;;;;0.57;0.38;;;23.30;99.90;;;;;;5081391;28;20395;-77
2021/08/12 09:01:52;;;;;;;0.40;0.20;;;23.30;99.90;;;;;;5096077;28;20410;-80
2021/08/12 09:04:18;;;;;;;0.40;0.30;;;23.20;99.90;;;;;;5099152;28;20404;-81
2021/08/12 09:06:44;;;;;;;0.40;0.30;;;23.30;99.90;;;;;;5094081;28;20427;-77
2021/08/12 09:09:10;;;;;;;0.40;0.30;;;23.40;99.90;;;;;;5097544;28;20421;-80
2021/08/12 09:11:37;;;;;;;0.40;0.30;;;23.30;99.90;;;;;;5094434;28;20427;-79
2021/08/12 09:14:38;;;;;;;0.40;0.30;;;23.20;99.90;;;;;;5093425;28;20414;-81
2021/08/12 09:17:19;;;;;;;0.40;0.30;;;23.40;99.90;;;;;;5076339;28;20978;-80
2021/08/12 09:20:05;;;;;;;0.40;0.40;;;23.70;99.90;;;;;;5093858;28;20378;-80
2021/08/12 09:22:56;;;;;;;0.40;0.20;;;23.60;99.90;;;;;;5091512;28;20386;-82
2021/08/12 09:25:47;;;;;;;0.40;0.30;;;23.70;99.90;;;;;;5097482;28;20402;-80
2021/08/12 09:28:32;;;;;;;0.40;0.30;;;23.90;99.90;;;;;;5096922;28;20410;-82
2021/08/12 09:30:58;;;;;;;0.40;0.30;;;24.00;99.90;;;;;;5098327;28;20800;-82
2021/08/12 09:33:24;;;;;;;0.40;0.20;;;24.00;99.90;;;;;;5098795;28;20515;-79
2021/08/12 09:35:50;;;;;;;0.40;0.30;;;24.00;99.90;;;;;;5093609;28;20439;-82
2021/08/12 09:38:16;;;;;;;0.40;0.20;;;24.10;99.90;;;;;;5094585;28;20835;-82
2021/08/12 09:40:46;;;;;;;0.40;0.20;;;24.30;99.90;;;;;;5076924;28;20402;-80
2021/08/12 09:43:12;;;;;;;0.40;0.20;;;24.30;99.90;;;;;;5064334;28;20540;-81
2021/08/12 09:45:40;;;;;;;0.40;0.20;;;24.40;99.90;;;;;;5082750;28;20486;-79
2021/08/12 09:48:16;;;;;;;0.40;0.30;;;24.40;99.90;;;;;;5082235;28;20420;-78
2021/08/12 09:50:58;;;;;;;0.40;0.20;;;24.60;99.90;;;;;;5079492;28;20394;-80
2021/08/12 09:53:24;;;;;;;0.40;0.30;;;24.60;99.90;;;;;;5082448;28;20390;-77
2021/08/12 09:55:50;;;;;;;0.40;0.20;;;24.70;99.90;;;;;;5079854;28;20401;-77
2021/08/12 09:58:18;;;;;;;0.40;0.20;;;24.80;99.90;;;;;;5080520;28;20471;-78
2021/08/12 10:00:46;;;;;;;0.40;0.30;;;24.70;99.90;;;;;;5078469;28;20497;-80
2021/08/12 10:03:32;;;;;;;0.40;0.20;;;24.60;99.90;;;;;;5080119;28;20413;-76
2021/08/12 10:06:03;;;;;;;0.50;0.40;;;24.60;99.90;;;;;;5081892;28;21029;-79
2021/08/12 10:08:34;;;;;;;0.40;0.20;;;24.90;99.90;;;;;;5079946;28;20912;-81
2021/08/12 10:11:23;;;;;;;0.40;0.30;;;25.00;99.90;;;;;;5080197;28;20488;-80
2021/08/12 10:13:54;;;;;;;0.40;0.20;;;25.10;99.90;;;;;;5077059;28;20421;-80
2021/08/12 10:16:21;;;;;;;0.40;0.30;;;25.40;99.90;;;;;;5079195;28;20389;-78
2021/08/12 10:18:48;;;;;;;0.40;0.30;;;26.80;99.90;;;;;;5080430;28;20397;-76
2021/08/12 10:21:17;;;;;;;0.40;0.20;;;25.60;99.90;;;;;;5061085;28;20430;-75
2021/08/12 10:23:49;;;;;;;0.40;0.20;;;25.60;99.90;;;;;;5080792;28;20448;-75
2021/08/12 10:26:17;;;;;;;0.40;0.20;;;25.60;99.90;;;;;;5079597;28;20386;-75
2021/08/12 10:28:48;;;;;;;0.40;0.30;;;25.70;99.90;;;;;;5079597;28;20456;-76
2021/08/12 10:31:18;;;;;;;0.40;0.30;;;25.80;99.90;;;;;;5078938;28;20382;-76
2021/08/12 10:33:47;;;;;;;0.40;0.20;;;25.80;99.90;;;;;;5079780;28;20390;-76
2021/08/12 10:36:15;;;;;;;0.40;0.30;;;25.80;99.90;;;;;;5081192;28;20390;-76
2021/08/12 10:38:42;;;;;;;0.55;0.52;;;25.80;99.90;;;;;;5079952;28;20461;-77
2021/08/12 10:41:14;;;;;;;0.40;0.30;;;25.90;99.90;;;;;;5078966;28;20394;-76
2021/08/12 10:43:41;;;;;;;0.40;0.30;;;26.00;99.90;;;;;;5061829;28;20425;-75
2021/08/12 10:46:06;;;;;;;0.40;0.20;;;26.00;99.90;;;;;;5081161;28;20758;-75
2021/08/12 10:48:32;;;;;;;0.40;0.30;;;25.80;99.90;;;;;;5079098;28;20397;-75
2021/08/12 10:51:12;;;;;;;0.40;0.30;;;26.20;99.90;;;;;;5078753;28;20386;-75
2021/08/12 10:54:14;;;;;;;0.50;0.40;;;26.30;99.90;;;;;;5080100;28;20483;-75
2021/08/12 10:56:41;;;;;;;0.40;0.30;;;26.30;99.90;;;;;;5080114;28;20712;-76
2021/08/12 10:59:07;;;;;;;0.40;0.30;;;26.40;99.90;;;;;;5061231;28;20455;-76
2021/08/12 11:01:36;;;;;;;0.40;0.20;;;26.30;99.90;;;;;;5077538;28;20382;-75
2021/08/12 11:04:02;;;;;;;0.40;0.20;;;26.40;99.90;;;;;;5079733;28;20430;-75
2021/08/12 11:06:54;;;;;;;0.40;0.20;;;26.60;99.90;;;;;;5079301;28;20496;-75
2021/08/12 11:09:20;;;;;;;0.40;0.20;;;26.80;99.90;;;;;;5075337;28;20441;-76
2021/08/12 11:11:45;;;;;;;0.40;0.30;;;27.10;99.70;;;;;;5059062;28;20866;-77
2021/08/12 11:14:13;;;;;;;0.40;0.30;;;27.10;98.80;;;;;;5078843;28;20405;-77
2021/08/12 11:16:45;;;;;;;0.40;0.30;;;27.00;97.90;;;;;;5078845;28;20397;-76
2021/08/12 11:19:26;;;;;;;0.40;0.20;;;27.20;99.10;;;;;;5079469;28;20775;-76
2021/08/12 11:21:53;;;;;;;0.40;0.30;;;27.40;97.60;;;;;;5077474;28;20397;-76
2021/08/12 11:24:22;;;;;;;0.40;0.30;;;27.30;98.00;;;;;;5078569;28;20466;-76
2021/08/12 11:26:47;;;;;;;0.40;0.30;;;27.60;97.20;;;;;;5088051;28;20465;-76
2021/08/12 11:29:28;;;;;;;0.40;0.30;;;27.60;98.20;;;;;;5091846;28;20426;-75
2021/08/12 11:31:56;;;;;;;0.40;0.30;;;27.70;97.50;;;;;;5090725;28;20386;-75
2021/08/12 11:34:35;;;;;;;0.40;0.30;;;28.00;95.20;;;;;;5091394;28;20788;-77
2021/08/12 11:37:11;;;;;;;0.40;0.28;;;27.90;95.10;;;;;;5091313;28;20870;-78
2021/08/12 11:40:11;;;;;;;0.40;0.20;;;27.90;96.20;;;;;;5090638;28;20469;-79
2021/08/12 11:42:44;;;;;;;0.40;0.25;;;28.10;96.00;;;;;;5072732;28;20394;-78
2021/08/12 11:45:17;;;;;;;0.40;0.20;;;28.40;96.80;;;;;;5098277;28;20508;-79
2021/08/12 11:47:44;;;;;;;0.50;0.50;;;28.40;95.80;;;;;;5084440;28;20403;-77
2021/08/12 11:50:14;;;;;;;0.40;0.30;;;28.90;95.70;;;;;;5095763;28;20881;-78
2021/08/12 11:53:05;;;;;;;0.40;0.20;;;29.00;92.70;;;;;;5098610;28;20391;-79
2021/08/12 11:55:35;;;;;;;0.40;0.20;;;29.40;92.30;;;;;;5104827;28;20846;-77
2021/08/12 11:58:02;;;;;;;0.40;0.30;;;29.30;92.90;;;;;;5091502;28;20374;-78
2021/08/12 12:00:33;;;;;;;0.40;0.20;;;29.30;92.20;;;;;;5091653;28;20368;-76
2021/08/12 12:03:00;;;;;;;0.40;0.20;;;29.40;92.40;;;;;;5074476;28;20423;-78
2021/08/12 12:05:35;;;;;;;0.40;0.20;;;29.10;91.90;;;;;;5104471;28;20385;-78
2021/08/12 12:08:26;;;;;;;0.40;0.20;;;29.00;95.90;;;;;;5095339;28;20411;-77
2021/08/12 12:11:07;;;;;;;0.40;0.30;;;29.30;93.60;;;;;;5067483;28;20453;-77
2021/08/12 12:13:32;;;;;;;0.40;0.30;;;29.00;92.10;;;;;;5098164;28;20476;-75
2021/08/12 12:15:58;;;;;;;0.40;0.20;;;29.50;92.00;;;;;;5101492;28;20473;-74
2021/08/12 12:18:44;;;;;;;0.40;0.20;;;29.60;91.90;;;;;;5109083;28;20378;-75
2021/08/12 12:21:10;;;;;;;0.40;0.20;;;29.30;90.90;;;;;;5092371;28;20422;-74
2021/08/12 12:23:38;;;;;;;0.40;0.30;;;29.50;91.90;;;;;;5090292;28;20451;-75
2021/08/12 12:26:16;;;;;;;0.40;0.30;;;29.60;91.10;;;;;;5107625;28;20883;-74
2021/08/12 12:28:42;;;;;;;0.40;0.30;;;29.70;90.40;;;;;;5097142;28;20722;-76
2021/08/12 12:31:27;;;;;;;0.40;0.20;;;29.90;90.10;;;;;;5100974;28;20381;-78
2021/08/12 12:34:02;;;;;;;0.40;0.20;;;29.00;90.50;;;;;;5072488;28;20393;-79
2021/08/12 12:36:29;;;;;;;0.40;0.30;;;29.20;91.80;;;;;;5064576;28;20386;-76
2021/08/12 12:38:56;;;;;;;0.40;0.30;;;29.50;90.80;;;;;;5098189;28;20620;-76
2021/08/12 12:41:23;;;;;;;0.40;0.30;;;30.10;90.60;;;;;;5094849;28;20405;-76
2021/08/12 12:43:49;;;;;;;0.40;0.20;;;29.70;89.80;;;;;;5093521;28;20406;-77
2021/08/12 12:46:30;;;;;;;0.40;0.20;;;30.10;87.30;;;;;;5095009;28;20404;-78
2021/08/12 12:48:56;;;;;;;0.40;0.20;;;30.20;87.90;;;;;;5094388;28;20386;-78
2021/08/12 12:51:27;;;;;;;0.63;0.35;;;30.30;88.50;;;;;;5094845;28;20712;-78
2021/08/12 12:53:53;;;;;;;0.40;0.30;;;30.60;88.30;;;;;;5093852;28;20479;-76
2021/08/12 12:56:25;;;;;;;0.80;0.40;;;30.70;87.60;;;;;;5094874;28;20874;-76